createdAt,value
2024-02-13T00:01:46.222Z,99934.38
2024-02-13T00:04:50.093Z,99935.91
2024-02-13T00:07:51.984Z,99941.03
2024-02-13T00:10:53.782Z,99942.25
2024-02-13T00:13:58.070Z,99941.81
2024-02-13T00:16:59.972Z,99947.09
2024-02-13T00:20:01.862Z,99956.69
2024-02-13T00:23:05.587Z,99957.16
2024-02-13T00:26:10.299Z,99957.63
2024-02-13T00:29:12.165Z,99971.59
2024-02-13T00:32:14.112Z,99969.41
2024-02-13T00:35:16.861Z,99966.16
2024-02-13T00:38:18.706Z,99974.81
2024-02-13T00:41:21.626Z,99972.81
2024-02-13T00:44:23.680Z,99973.59
2024-02-13T00:47:25.536Z,99977.00
2024-02-13T00:50:27.320Z,99974.53
2024-02-13T00:53:29.122Z,99979.03
2024-02-13T00:56:30.893Z,99978.56
2024-02-13T00:59:32.813Z,99980.59
2024-02-13T01:02:35.450Z,99973.31
2024-02-13T01:05:42.146Z,99983.34
2024-02-13T01:08:44.965Z,99973.13
2024-02-13T01:11:46.932Z,99977.94
2024-02-13T01:14:50.061Z,99981.03
2024-02-13T01:17:51.993Z,99976.84
2024-02-13T01:20:53.878Z,99988.19
2024-02-13T01:23:55.739Z,99986.47
2024-02-13T01:26:58.991Z,99992.81
2024-02-13T01:30:01.078Z,99987.41
2024-02-13T01:33:03.053Z,99995.31
2024-02-13T01:36:05.595Z,99997.47
2024-02-13T01:39:07.406Z,99993.28
2024-02-13T01:42:10.994Z,99999.47
2024-02-13T01:45:14.973Z,100001.81
2024-02-13T01:48:18.832Z,100000.25
2024-02-13T01:51:20.876Z,100008.94
2024-02-13T01:54:25.145Z,100008.63
2024-02-13T01:57:30.991Z,100016.69
2024-02-13T02:00:37.009Z,100015.94
2024-02-13T02:03:39.821Z,100007.84
2024-02-13T02:06:43.031Z,100017.00
2024-02-13T02:09:44.943Z,100020.25
2024-02-13T02:12:51.090Z,100020.53
2024-02-13T02:15:53.099Z,100018.22
2024-02-13T02:18:55.976Z,100018.38
2024-02-13T02:21:57.801Z,100020.69
2024-02-13T02:24:59.586Z,100026.56
2024-02-13T02:28:01.509Z,100027.19
2024-02-13T02:31:03.381Z,100020.53
2024-02-13T02:34:05.250Z,100027.66
2024-02-13T02:37:07.548Z,100032.19
2024-02-13T02:40:09.812Z,100033.72
2024-02-13T02:43:11.624Z,100030.63
2024-02-13T02:46:14.153Z,100034.66
2024-02-13T02:49:18.330Z,100034.66
2024-02-13T02:52:20.863Z,100039.75
2024-02-13T02:55:23.616Z,100038.84
2024-02-13T02:58:25.474Z,100038.34
2024-02-13T03:01:27.492Z,100046.88
2024-02-13T03:04:29.590Z,100043.47
2024-02-13T03:07:31.988Z,100043.00
2024-02-13T03:10:33.737Z,100047.50
2024-02-13T03:13:35.680Z,100050.72
2024-02-13T03:16:37.675Z,100058.81
2024-02-13T03:19:39.719Z,100065.47
2024-02-13T03:22:41.497Z,100074.16
2024-02-13T03:25:43.301Z,100078.78
2024-02-13T03:28:45.047Z,100081.25
2024-02-13T03:31:46.752Z,100085.75
2024-02-13T03:34:48.575Z,100082.66
2024-02-13T03:37:50.347Z,100085.44
2024-02-13T03:40:52.076Z,100098.31
2024-02-13T03:43:53.802Z,100089.63
2024-02-13T03:46:55.681Z,100099.22
2024-02-13T03:49:57.580Z,100108.53
2024-02-13T03:52:59.366Z,100118.16
2024-02-13T03:56:04.327Z,100121.41
2024-02-13T03:59:06.495Z,100126.03
2024-02-13T04:02:09.227Z,100129.63
2024-02-13T04:05:14.047Z,100138.00
2024-02-13T04:08:16.031Z,100146.19
2024-02-13T04:11:17.894Z,100143.25
2024-02-13T04:14:19.799Z,100157.09
2024-02-13T04:17:22.073Z,100146.50
2024-02-13T04:20:23.918Z,100152.06
2024-02-13T04:23:26.079Z,100145.69
2024-02-13T04:26:36.297Z,100150.66
2024-02-13T04:29:43.998Z,100145.09
2024-02-13T04:32:46.041Z,100151.91
2024-02-13T04:35:48.606Z,100159.31
2024-02-13T04:38:50.491Z,100156.53
2024-02-13T04:41:52.472Z,100167.97
2024-02-13T04:44:54.723Z,100165.34
2024-02-13T04:47:58.156Z,100168.75
2024-02-13T04:51:00.095Z,100171.41
2024-02-13T04:54:01.964Z,100171.53
2024-02-13T04:57:05.042Z,100180.91
2024-02-13T05:00:17.438Z,100183.91
2024-02-13T05:03:27.381Z,100185.88
2024-02-13T05:07:07.302Z,100182.97
2024-02-13T05:10:10.764Z,100202.38
2024-02-13T05:13:16.060Z,100209.09
2024-02-13T05:16:19.255Z,100216.19
2024-02-13T05:19:22.513Z,100226.81
2024-02-13T05:22:24.664Z,100221.84
2024-02-13T05:25:27.850Z,100231.31
2024-02-13T05:28:29.705Z,100228.97
2024-02-13T05:31:31.780Z,100243.91
2024-02-13T05:34:34.302Z,100236.22
2024-02-13T05:37:38.969Z,100238.59
2024-02-13T05:40:43.500Z,100244.69
2024-02-13T05:43:45.601Z,100243.16
2024-02-13T05:46:47.524Z,100242.78
2024-02-13T05:49:49.536Z,100253.00
2024-02-13T05:52:54.179Z,100269.38
2024-02-13T05:55:56.348Z,100277.75
2024-02-13T05:58:59.450Z,100285.38
2024-02-13T06:02:01.512Z,100289.75
2024-02-13T06:05:03.983Z,100301.25
2024-02-13T06:08:07.408Z,100301.25
2024-02-13T06:11:09.230Z,100310.88
2024-02-13T06:14:11.069Z,100312.34
2024-02-13T06:17:13.563Z,100313.63
2024-02-13T06:20:16.152Z,100317.72
2024-02-13T06:23:18.011Z,100319.75
2024-02-13T06:26:20.432Z,100326.56
2024-02-13T06:29:22.870Z,100337.41
2024-02-13T06:32:25.877Z,100333.50
2024-02-13T06:35:27.685Z,100343.44
2024-02-13T06:38:29.486Z,100346.84
2024-02-13T06:41:31.325Z,100356.09
2024-02-13T06:44:33.214Z,100358.94
2024-02-13T06:47:35.203Z,100367.41
2024-02-13T06:50:37.103Z,100362.84
2024-02-13T06:53:38.977Z,100365.94
2024-02-13T06:56:42.522Z,100368.28
2024-02-13T06:59:44.448Z,100376.16
2024-02-13T07:02:49.952Z,100391.59
2024-02-13T07:05:54.199Z,100388.66
2024-02-13T07:08:57.908Z,100394.69
2024-02-13T07:11:59.884Z,100397.31
2024-02-13T07:15:02.265Z,100398.00
2024-02-13T07:21:08.724Z,100403.16
2024-02-13T07:24:11.881Z,100402.38
2024-02-13T07:27:13.683Z,100419.09
2024-02-13T07:30:16.372Z,100416.78
2024-02-13T07:33:18.346Z,100424.38
2024-02-13T07:36:20.263Z,100430.28
2024-02-13T07:39:22.104Z,100435.63
2024-02-13T07:42:25.352Z,100439.56
2024-02-13T07:45:27.434Z,100447.63
2024-02-13T07:48:29.371Z,100449.97
2024-02-13T07:51:31.860Z,100452.97
2024-02-13T07:54:34.191Z,100453.75
2024-02-13T07:57:36.369Z,100458.00
2024-02-13T08:00:38.528Z,100458.53
2024-02-13T08:03:40.497Z,100461.53
2024-02-13T08:06:44.843Z,100459.47
2024-02-13T08:09:46.986Z,100461.09
2024-02-13T08:12:48.767Z,100461.13
2024-02-13T08:15:50.702Z,100468.56
2024-02-13T08:18:52.763Z,100470.72
2024-02-13T08:21:54.841Z,100470.97
2024-02-13T08:24:56.841Z,100474.78
2024-02-13T08:27:59.939Z,100477.19
2024-02-13T08:31:15.768Z,100472.81
2024-02-13T08:34:29.854Z,100473.63
2024-02-13T08:37:31.730Z,100473.41
2024-02-13T08:40:33.547Z,100474.53
2024-02-13T08:43:35.392Z,100478.44
2024-02-13T08:46:37.140Z,100478.19
2024-02-13T08:49:39.550Z,100479.94
2024-02-13T08:52:41.459Z,100471.97
2024-02-13T08:55:43.256Z,100473.88
2024-02-13T08:58:45.032Z,100476.28
2024-02-13T09:01:46.866Z,100482.13
2024-02-13T09:04:49.770Z,100483.13
2024-02-13T09:07:51.833Z,100483.78
2024-02-13T09:10:53.658Z,100488.00
2024-02-13T09:13:55.447Z,100498.63
2024-02-13T09:16:58.707Z,100503.44
2024-02-13T09:20:01.203Z,100508.91
2024-02-13T09:23:03.308Z,100512.16
2024-02-13T09:26:05.528Z,100510.00
2024-02-13T09:29:07.515Z,100523.22
2024-02-13T09:32:11.581Z,100525.41
2024-02-13T09:35:14.622Z,100529.97
2024-02-13T09:38:16.976Z,100534.63
2024-02-13T09:41:18.946Z,100536.34
2024-02-13T09:44:20.920Z,100532.16
2024-02-13T09:47:23.090Z,100541.63
2024-02-13T09:50:31.105Z,100540.56
2024-02-13T09:53:33.246Z,100542.75
2024-02-13T09:56:36.761Z,100544.78
2024-02-13T09:59:40.471Z,100544.16
2024-02-13T10:02:42.352Z,100540.44
2024-02-13T10:05:45.020Z,100537.66
2024-02-13T10:08:53.485Z,100534.97
2024-02-13T10:11:55.473Z,100536.53
2024-02-13T10:14:59.572Z,100540.53
2024-02-13T10:18:01.655Z,100536.16
2024-02-13T10:21:05.672Z,100530.31
2024-02-13T10:24:12.800Z,100534.03
2024-02-13T10:27:16.302Z,100531.03
2024-02-13T10:30:26.158Z,100532.09
2024-02-13T10:33:31.004Z,100536.19
2024-02-13T10:36:34.080Z,100523.84
2024-02-13T10:39:41.671Z,100521.19
2024-02-13T10:42:43.750Z,100529.28
2024-02-13T10:45:51.357Z,100526.97
2024-02-13T10:49:33.699Z,100527.94
2024-02-13T10:52:36.697Z,100533.47
2024-02-13T10:55:43.819Z,100523.91
2024-02-13T10:58:48.043Z,100532.59
2024-02-13T11:01:52.926Z,100526.59
2024-02-13T11:04:57.019Z,100521.41
2024-02-13T11:08:01.651Z,100515.31
2024-02-13T11:11:05.014Z,100524.81
2024-02-13T11:14:19.179Z,100527.25
2024-02-13T11:17:21.844Z,100528.94
2024-02-13T11:20:29.380Z,100528.06
2024-02-13T11:23:31.295Z,100530.38
2024-02-13T11:26:35.858Z,100537.22
2024-02-13T11:29:39.341Z,100540.28
2024-02-13T11:32:43.793Z,100536.31
2024-02-13T11:35:47.721Z,100528.34
2024-02-13T11:38:56.088Z,100531.53
2024-02-13T11:41:59.229Z,100532.19
2024-02-13T11:45:05.106Z,100531.22
2024-02-13T11:48:11.701Z,100532.13
2024-02-13T11:51:15.629Z,100540.78
2024-02-13T11:54:20.155Z,100535.94
2024-02-13T11:57:28.507Z,100534.50
2024-02-13T12:00:30.581Z,100535.47
2024-02-13T12:03:37.086Z,100541.41
2024-02-13T12:06:45.845Z,100536.28
2024-02-13T12:09:54.033Z,100539.88
2024-02-13T12:12:56.301Z,100541.06
2024-02-13T12:15:59.441Z,100542.63
2024-02-13T12:19:01.436Z,100545.44
2024-02-13T12:22:10.115Z,100544.41
2024-02-13T12:25:12.341Z,100540.75
2024-02-13T12:28:14.926Z,100545.72
2024-02-13T12:31:16.892Z,100541.09
2024-02-13T12:34:20.274Z,100534.38
2024-02-13T12:37:28.673Z,100541.59
2024-02-13T12:40:32.673Z,100549.72
2024-02-13T12:43:34.739Z,100551.91
2024-02-13T12:46:38.532Z,100551.78
2024-02-13T12:49:44.185Z,100559.38
2024-02-13T12:52:46.312Z,100551.16
2024-02-13T12:55:50.806Z,100557.94
2024-02-13T12:58:54.838Z,100565.53
2024-02-13T13:02:00.328Z,100573.09
2024-02-13T13:05:04.106Z,100557.25
2024-02-13T13:08:10.498Z,100571.03
2024-02-13T13:11:12.603Z,100585.66
2024-02-13T13:14:17.418Z,100585.06
2024-02-13T13:17:22.910Z,100588.81
2024-02-13T13:20:25.393Z,100584.94
2024-02-13T13:23:27.414Z,100599.91
2024-02-13T13:26:33.865Z,100604.44
2024-02-13T13:29:35.921Z,100605.41
2024-02-13T13:32:39.854Z,100615.16
2024-02-13T13:35:50.709Z,100609.09
2024-02-13T13:38:53.372Z,100615.75
2024-02-13T13:41:56.154Z,100614.84
2024-02-13T13:44:58.046Z,100620.91
2024-02-13T13:48:14.503Z,100629.63
2024-02-13T13:51:16.504Z,100627.97
2024-02-13T13:54:21.224Z,100630.16
2024-02-13T13:57:23.157Z,100630.34
2024-02-13T14:00:31.001Z,100638.28
2024-02-13T14:03:33.324Z,100637.47
2024-02-13T14:06:36.015Z,100637.97
2024-02-13T14:09:37.868Z,100634.72
2024-02-13T14:12:44.311Z,100639.84
2024-02-13T14:15:46.328Z,100643.41
2024-02-13T14:18:49.319Z,100649.78
2024-02-13T14:21:51.350Z,100651.06
2024-02-13T14:24:53.168Z,100654.47
2024-02-13T14:27:55.678Z,100654.50
2024-02-13T14:30:58.007Z,100656.03
2024-02-13T14:34:00.983Z,100654.06
2024-02-13T14:37:03.176Z,100656.97
2024-02-13T14:40:07.307Z,100656.81
2024-02-13T14:43:10.951Z,100662.13
2024-02-13T14:46:12.768Z,100660.22
2024-02-13T14:49:14.893Z,100665.97
2024-02-13T14:52:16.789Z,100668.78
2024-02-13T14:55:18.674Z,100665.81
2024-02-13T14:58:34.019Z,100667.22
2024-02-13T15:01:40.984Z,100669.59
2024-02-13T15:04:42.945Z,100671.59
2024-02-13T15:07:46.136Z,100682.19
2024-02-13T15:10:49.442Z,100681.72
2024-02-13T15:13:51.284Z,100685.47
2024-02-13T15:16:53.845Z,100691.97
2024-02-13T15:19:56.788Z,100699.59
2024-02-13T15:22:58.590Z,100698.19
2024-02-13T15:26:00.409Z,100695.81
2024-02-13T15:29:02.230Z,100713.25
2024-02-13T15:32:05.635Z,100716.16
2024-02-13T15:35:11.001Z,100716.28
2024-02-13T15:38:31.369Z,100716.53
2024-02-13T15:41:51.799Z,100718.78
2024-02-13T15:45:12.265Z,100721.56
2024-02-13T15:48:16.586Z,100728.25
2024-02-13T15:51:18.489Z,100728.78
2024-02-13T15:54:20.276Z,100738.56
2024-02-13T15:57:22.058Z,100740.75
2024-02-13T16:00:28.135Z,100753.97
2024-02-13T16:03:30.573Z,100760.31
2024-02-13T16:06:37.860Z,100764.88
2024-02-13T16:09:39.805Z,100767.28
2024-02-13T16:12:44.712Z,100780.38
2024-02-13T16:15:47.973Z,100782.56
2024-02-13T16:18:50.807Z,100789.81
2024-02-13T16:21:54.141Z,100794.84
2024-02-13T16:24:56.900Z,100803.59
2024-02-13T16:27:59.820Z,100806.34
2024-02-13T16:31:01.633Z,100817.03
2024-02-13T16:34:04.420Z,100818.59
2024-02-13T16:37:06.387Z,100823.69
2024-02-13T16:40:12.252Z,100825.94
2024-02-13T16:43:14.050Z,100839.06
2024-02-13T16:46:21.498Z,100844.16
2024-02-13T16:49:25.478Z,100851.78
2024-02-13T16:52:30.336Z,100854.25
2024-02-13T16:55:32.591Z,100857.94
2024-02-13T16:58:34.380Z,100854.63
2024-02-13T17:01:37.779Z,100857.56
2024-02-13T17:04:40.954Z,100865.81
2024-02-13T17:07:44.710Z,100870.97
2024-02-13T17:10:46.676Z,100873.91
2024-02-13T17:13:48.484Z,100880.25
2024-02-13T17:16:50.430Z,100881.84
2024-02-13T17:19:55.092Z,100881.22
2024-02-13T17:22:57.292Z,100901.59
2024-02-13T17:25:59.104Z,100900.41
2024-02-13T17:29:01.069Z,100905.13
2024-02-13T17:32:02.908Z,100904.69
2024-02-13T17:35:07.927Z,100921.03
2024-02-13T17:38:11.447Z,100920.66
2024-02-13T17:41:16.105Z,100927.63
2024-02-13T17:44:17.935Z,100936.34
2024-02-13T17:47:19.875Z,100933.41
2024-02-13T17:50:21.711Z,100937.91
2024-02-13T17:53:23.521Z,100942.19
2024-02-13T17:56:25.389Z,100946.50
2024-02-13T17:59:27.270Z,100950.19
2024-02-13T18:02:29.632Z,100960.56
2024-02-13T18:05:34.729Z,100964.34
2024-02-13T18:08:36.749Z,100965.50
2024-02-13T18:11:39.345Z,100972.69
2024-02-13T18:14:42.388Z,100979.53
2024-02-13T18:17:46.333Z,100985.50
2024-02-13T18:20:48.540Z,100987.25
2024-02-13T18:23:55.489Z,100994.22
2024-02-13T18:26:58.296Z,101004.44
2024-02-13T18:30:00.214Z,101011.25
2024-02-13T18:33:02.377Z,101014.69
2024-02-13T18:36:05.044Z,101016.28
2024-02-13T18:39:06.919Z,101019.56
2024-02-13T18:42:08.786Z,101026.56
2024-02-13T18:45:10.698Z,101034.25
2024-02-13T18:48:12.724Z,101036.41
2024-02-13T18:51:17.726Z,101048.72
2024-02-13T18:54:19.555Z,101045.59
2024-02-13T18:57:21.408Z,101054.72
2024-02-13T19:00:25.017Z,101057.84
2024-02-13T19:03:26.827Z,101062.56
2024-02-13T19:06:29.644Z,101065.53
2024-02-13T19:09:31.552Z,101067.63
2024-02-13T19:12:34.748Z,101069.81
2024-02-13T19:15:36.763Z,101069.66
2024-02-13T19:18:39.767Z,101067.53
2024-02-13T19:21:42.783Z,101063.28
2024-02-13T19:24:44.649Z,101073.22
2024-02-13T19:27:49.008Z,101073.22
2024-02-13T19:30:51.833Z,101074.81
2024-02-13T19:33:54.281Z,101074.00
2024-02-13T19:36:57.672Z,101079.53
2024-02-13T19:39:59.611Z,101082.47
2024-02-13T19:43:01.569Z,101085.91
2024-02-13T19:46:03.474Z,101088.84
2024-02-13T19:49:05.960Z,101101.75
2024-02-13T19:52:08.212Z,101098.50
2024-02-13T19:55:10.429Z,101095.28
2024-02-13T19:58:12.314Z,101094.00
2024-02-13T20:01:14.350Z,101101.41
2024-02-13T20:04:16.429Z,101100.06
2024-02-13T20:07:18.287Z,101104.03
2024-02-13T20:10:23.077Z,101104.63
2024-02-13T20:13:25.784Z,101108.97
2024-02-13T20:16:27.687Z,101111.56
2024-02-13T20:19:30.146Z,101119.75
2024-02-13T20:22:32.267Z,101116.03
2024-02-13T20:25:34.100Z,101126.31
2024-02-13T20:28:36.019Z,101140.00
2024-02-13T20:31:37.777Z,101132.13
2024-02-13T20:34:39.709Z,101128.00
2024-02-13T20:37:41.976Z,101140.03
2024-02-13T20:40:43.793Z,101144.00
2024-02-13T20:43:45.730Z,101136.75
2024-02-13T20:46:47.483Z,101138.38
2024-02-13T20:49:49.341Z,101144.25
2024-02-13T20:52:51.453Z,101145.19
2024-02-13T20:55:58.344Z,101142.06
2024-02-13T20:59:03.153Z,101156.34
2024-02-13T21:02:06.833Z,101146.84
2024-02-13T21:05:10.113Z,101155.63
2024-02-13T21:08:12.915Z,101159.88
2024-02-13T21:11:14.944Z,101162.78
2024-02-13T21:14:16.775Z,101169.13
2024-02-13T21:17:19.524Z,101164.88
2024-02-13T21:20:28.480Z,101169.88
2024-02-13T21:23:49.012Z,101174.34
2024-02-13T21:26:50.859Z,101170.91
2024-02-13T21:29:52.912Z,101173.66
2024-02-13T21:32:55.070Z,101177.06
2024-02-13T21:35:56.903Z,101172.25
2024-02-13T21:38:58.723Z,101182.75
2024-02-13T21:42:00.573Z,101187.56
2024-02-13T21:45:03.682Z,101186.84
2024-02-13T21:48:06.482Z,101192.38
2024-02-13T21:51:08.693Z,101186.59
2024-02-13T21:54:10.681Z,101196.91
2024-02-13T21:57:12.558Z,101205.03
2024-02-13T22:00:14.900Z,101202.88
2024-02-13T22:03:16.982Z,101205.78
2024-02-13T22:06:19.729Z,101214.53
2024-02-13T22:09:22.177Z,101208.97
2024-02-13T22:12:23.987Z,101210.31
2024-02-13T22:15:25.768Z,101216.13
2024-02-13T22:18:27.673Z,101211.09
2024-02-13T22:21:30.635Z,101220.84
2024-02-13T22:24:33.533Z,101219.25
2024-02-13T22:27:35.378Z,101215.09
2024-02-13T22:30:37.180Z,101215.06
2024-02-13T22:33:39.139Z,101223.28
2024-02-13T22:36:41.173Z,101211.53
2024-02-13T22:39:43.620Z,101217.34
2024-02-13T22:42:45.393Z,101222.31
2024-02-13T22:45:47.175Z,101221.28
2024-02-13T22:48:49.732Z,101231.59
2024-02-13T22:51:51.610Z,101238.25
2024-02-13T22:54:53.366Z,101243.50
2024-02-13T22:57:55.245Z,101245.81
2024-02-13T23:01:00.330Z,101244.44
2024-02-13T23:04:05.178Z,101247.91
2024-02-13T23:07:07.223Z,101241.03
2024-02-13T23:10:10.244Z,101244.50
2024-02-13T23:13:13.953Z,101247.63
2024-02-13T23:16:15.930Z,101254.50
2024-02-13T23:19:18.368Z,101257.38
2024-02-13T23:22:20.184Z,101252.91
2024-02-13T23:25:22.912Z,101262.09
2024-02-13T23:28:24.862Z,101260.81
2024-02-13T23:31:26.768Z,101264.81
2024-02-13T23:34:28.622Z,101272.97
2024-02-13T23:37:30.506Z,101275.63
2024-02-13T23:40:32.273Z,101265.63
2024-02-13T23:43:34.708Z,101271.97
2024-02-13T23:46:36.543Z,101275.97
2024-02-13T23:49:38.842Z,101272.81
2024-02-13T23:52:41.171Z,101281.81
2024-02-13T23:55:43.005Z,101281.00
2024-02-13T23:58:46.986Z,101280.75
